aviador You're here:

KHLR Decoded Metar

FORT HOOD in TX, USA
Report Time2017-11-24 10:58:00
UTC Time2017-11-24 11:16:12
Flight Rules vfr VFR
WindCalm
Visibility9999 m
Phenomena:N/A
Clouds:N/A
Expected CloudBase > 3,200 ft AGL from Temp-Dew spread
CeilingNone
Temp08°C (ISA -5)
Dew Point00°C (57% RH)
AAT6.0°C
QNH1014 hPa
Density Alt364 ft
Elevation928 ft
Report Wrong Elevation
Raw Report
KHLR 241058Z AUTO 00000KT 9SM CLR 08/00 A2994 RMK AO2 SLP134
T00771005 $=

Extra information for KHLR:More info

Metar Taf Metar & Taf Last 4 Metars F.Rules Stats Wind Profile Meteogram Temp Stats Airport Information Weather charts Add Link Nearby VenuesMetar ALERT Operation Metar Decoded Social comments

AIRNAV info for KHLR